Time;durP1;ratioP1;P1;durP2;ratioP2;P2;SDS_P1;SDS_P2;PMS_P1;PMS_P2;Temp;Humidity;BMP_temperature;BMP_pressure;BME280_temperature;BME280_humidity;BME280_pressure;Samples;Min_cycle;Max_cycle;Signal;HPM_P1;HPM_P2
2023/12/21 00:01:43;;;;;;;6.60;6.20;;;;;;;;;;5021694;28;20042;-63
2023/12/21 00:04:09;;;;;;;6.60;6.05;;;;;;;;;;5023156;28;20033;-63
2023/12/21 00:06:35;;;;;;;6.53;6.13;;;;;;;;;;5026122;28;20037;-62
2023/12/21 00:09:00;;;;;;;5.40;5.15;;;;;;;;;;5022881;28;21149;-61
2023/12/21 00:11:26;;;;;;;6.13;5.72;;;;;;;;;;5029495;28;20621;-63
2023/12/21 00:13:52;;;;;;;6.63;5.65;;;;;;;;;;5031175;28;20040;-62
2023/12/21 00:16:17;;;;;;;5.90;5.60;;;;;;;;;;5027054;28;20126;-63
2023/12/21 00:18:43;;;;;;;5.75;5.45;;;;;;;;;;5022829;28;20073;-63
2023/12/21 00:21:09;;;;;;;5.60;5.30;;;;;;;;;;5017094;28;20035;-63
2023/12/21 00:23:34;;;;;;;5.97;5.50;;;;;;;;;;5021714;28;20068;-63
2023/12/21 00:26:00;;;;;;;6.50;6.10;;;;;;;;;;5015576;28;20045;-63
2023/12/21 00:28:26;;;;;;;6.47;6.07;;;;;;;;;;5026678;28;20034;-63
2023/12/21 00:30:51;;;;;;;5.90;5.60;;;;;;;;;;5021170;28;20628;-63
2023/12/21 00:33:17;;;;;;;6.65;6.25;;;;;;;;;;5017083;28;20507;-63
2023/12/21 00:35:42;;;;;;;6.57;6.10;;;;;;;;;;5016771;28;20033;-64
2023/12/21 00:38:08;;;;;;;6.45;6.05;;;;;;;;;;5017426;28;20074;-63
2023/12/21 00:40:33;;;;;;;6.30;5.88;;;;;;;;;;5025633;28;20675;-64
2023/12/21 00:42:59;;;;;;;6.07;5.75;;;;;;;;;;5018723;28;20044;-63
2023/12/21 00:45:24;;;;;;;6.72;5.97;;;;;;;;;;5024256;28;20037;-63
2023/12/21 00:47:50;;;;;;;6.30;5.90;;;;;;;;;;5018620;28;20037;-64
2023/12/21 00:50:16;;;;;;;6.05;5.75;;;;;;;;;;5020229;28;20034;-64
2023/12/21 00:52:42;;;;;;;5.82;5.53;;;;;;;;;;5028556;28;20131;-64
2023/12/21 00:55:08;;;;;;;6.20;5.90;;;;;;;;;;5025272;28;20029;-64
2023/12/21 00:57:33;;;;;;;5.57;5.25;;;;;;;;;;5033834;28;20043;-63
2023/12/21 00:59:59;;;;;;;6.00;5.60;;;;;;;;;;5024112;28;20125;-64
2023/12/21 01:02:25;;;;;;;5.40;5.10;;;;;;;;;;5026141;28;20096;-64
2023/12/21 01:04:50;;;;;;;5.00;4.80;;;;;;;;;;5026488;28;20037;-65
2023/12/21 01:07:16;;;;;;;5.50;5.20;;;;;;;;;;5030877;28;20187;-64
2023/12/21 01:09:41;;;;;;;5.65;5.35;;;;;;;;;;5025013;28;20036;-64
2023/12/21 01:12:07;;;;;;;5.63;5.10;;;;;;;;;;5022304;28;20032;-62
2023/12/21 01:14:33;;;;;;;5.72;5.43;;;;;;;;;;5029561;28;20045;-64
2023/12/21 01:16:59;;;;;;;5.57;5.28;;;;;;;;;;5022254;28;20040;-63
2023/12/21 01:19:24;;;;;;;5.60;5.30;;;;;;;;;;5028625;28;20087;-64
2023/12/21 01:21:50;;;;;;;5.80;5.50;;;;;;;;;;5028042;28;20037;-63
2023/12/21 01:24:15;;;;;;;5.82;5.53;;;;;;;;;;5029086;28;20069;-63
2023/12/21 01:26:42;;;;;;;5.82;5.53;;;;;;;;;;5022441;28;20052;-64
2023/12/21 01:29:07;;;;;;;5.85;5.55;;;;;;;;;;5028383;28;20044;-63
2023/12/21 01:31:33;;;;;;;6.18;5.88;;;;;;;;;;5029807;28;20037;-63
2023/12/21 01:33:59;;;;;;;5.63;5.32;;;;;;;;;;5027446;28;20072;-64
2023/12/21 01:36:26;;;;;;;5.97;5.68;;;;;;;;;;5021216;28;20026;-64
2023/12/21 01:38:52;;;;;;;5.38;5.07;;;;;;;;;;5020512;28;20417;-64
2023/12/21 01:41:17;;;;;;;5.65;5.35;;;;;;;;;;5024112;28;20033;-64
2023/12/21 01:43:43;;;;;;;6.03;5.72;;;;;;;;;;5020319;28;20061;-64
2023/12/21 01:46:09;;;;;;;6.07;5.63;;;;;;;;;;5020002;28;20557;-64
2023/12/21 01:48:36;;;;;;;5.70;5.40;;;;;;;;;;5021428;28;20099;-64
2023/12/21 01:51:04;;;;;;;5.32;5.13;;;;;;;;;;5021457;28;20056;-64
2023/12/21 01:53:31;;;;;;;5.72;5.43;;;;;;;;;;5011964;28;20037;-63
2023/12/21 01:55:56;;;;;;;5.20;4.90;;;;;;;;;;5016576;28;20065;-63
2023/12/21 01:58:23;;;;;;;6.60;5.63;;;;;;;;;;5020009;28;20585;-63
2023/12/21 02:00:49;;;;;;;5.80;5.50;;;;;;;;;;5023004;28;20040;-64
2023/12/21 02:03:16;;;;;;;5.88;5.57;;;;;;;;;;5030197;28;20033;-63
2023/12/21 02:05:41;;;;;;;5.60;5.30;;;;;;;;;;5024867;28;20049;-63
2023/12/21 02:08:07;;;;;;;5.90;5.60;;;;;;;;;;5018029;28;20044;-63
2023/12/21 02:10:33;;;;;;;5.40;5.20;;;;;;;;;;5025912;28;20501;-63
2023/12/21 02:12:58;;;;;;;5.20;5.00;;;;;;;;;;5022908;28;20124;-64
2023/12/21 02:15:24;;;;;;;5.80;5.50;;;;;;;;;;5023418;28;20056;-63
2023/12/21 02:17:51;;;;;;;5.93;5.63;;;;;;;;;;5025191;28;20079;-63
2023/12/21 02:20:18;;;;;;;5.60;5.40;;;;;;;;;;5026012;28;20046;-62
2023/12/21 02:22:46;;;;;;;5.82;5.53;;;;;;;;;;5024254;28;20116;-64
2023/12/21 02:25:14;;;;;;;5.57;5.28;;;;;;;;;;5025172;28;20037;-64
2023/12/21 02:27:39;;;;;;;5.60;5.40;;;;;;;;;;5020700;28;20044;-64
2023/12/21 02:30:05;;;;;;;5.70;5.40;;;;;;;;;;5028018;28;20033;-64
2023/12/21 02:32:32;;;;;;;6.05;5.75;;;;;;;;;;5023878;28;20124;-64
2023/12/21 02:34:57;;;;;;;5.60;5.30;;;;;;;;;;5027761;28;20521;-64
2023/12/21 02:37:23;;;;;;;5.70;5.25;;;;;;;;;;5003675;28;20045;-64
2023/12/21 02:39:48;;;;;;;5.95;5.65;;;;;;;;;;5023978;28;20037;-64
2023/12/21 02:42:14;;;;;;;5.30;5.10;;;;;;;;;;5021171;28;20029;-64
2023/12/21 02:44:39;;;;;;;5.90;5.50;;;;;;;;;;5024230;28;20037;-64
2023/12/21 02:47:05;;;;;;;5.68;5.38;;;;;;;;;;5023387;28;20033;-64
2023/12/21 02:49:30;;;;;;;6.15;5.75;;;;;;;;;;5024809;28;20053;-64
2023/12/21 02:51:56;;;;;;;5.97;5.55;;;;;;;;;;5016360;28;20048;-64
2023/12/21 02:54:21;;;;;;;6.00;5.60;;;;;;;;;;5019860;28;20041;-64
2023/12/21 02:56:47;;;;;;;5.88;5.57;;;;;;;;;;5023312;28;20040;-64
2023/12/21 02:59:13;;;;;;;5.43;5.22;;;;;;;;;;5018629;28;20034;-64
2023/12/21 03:01:42;;;;;;;5.68;5.38;;;;;;;;;;5026542;28;20045;-64
2023/12/21 03:04:09;;;;;;;5.47;5.07;;;;;;;;;;5021990;28;20037;-64
2023/12/21 03:06:35;;;;;;;5.18;4.97;;;;;;;;;;5021063;28;20556;-64
2023/12/21 03:09:00;;;;;;;5.85;5.55;;;;;;;;;;5016524;28;20037;-64
2023/12/21 03:11:26;;;;;;;9.20;6.47;;;;;;;;;;5028812;28;20092;-64
2023/12/21 03:13:52;;;;;;;5.40;5.20;;;;;;;;;;5017589;28;20033;-64
2023/12/21 03:16:18;;;;;;;5.40;5.18;;;;;;;;;;5026620;28;20071;-63
2023/12/21 03:18:47;;;;;;;5.40;5.10;;;;;;;;;;5032338;28;20532;-64
2023/12/21 03:21:15;;;;;;;5.50;5.25;;;;;;;;;;5020510;28;20041;-64
2023/12/21 03:23:41;;;;;;;6.13;5.82;;;;;;;;;;5022506;28;20033;-64
2023/12/21 03:26:08;;;;;;;5.75;5.45;;;;;;;;;;5026884;28;20118;-64
2023/12/21 03:28:34;;;;;;;5.70;5.40;;;;;;;;;;5025288;28;20037;-64
2023/12/21 03:31:01;;;;;;;6.07;5.57;;;;;;;;;;5020550;28;20033;-64
2023/12/21 03:33:26;;;;;;;5.75;5.45;;;;;;;;;;5029890;28;20041;-64
2023/12/21 03:35:52;;;;;;;6.35;5.85;;;;;;;;;;5024931;28;20533;-63
2023/12/21 03:38:17;;;;;;;5.50;5.30;;;;;;;;;;5024646;28;20029;-64
2023/12/21 03:40:43;;;;;;;5.10;4.90;;;;;;;;;;5021783;28;20041;-63
2023/12/21 03:43:09;;;;;;;5.22;5.03;;;;;;;;;;5017174;28;20386;-64
2023/12/21 03:45:39;;;;;;;5.28;5.00;;;;;;;;;;5018666;28;20037;-64
2023/12/21 03:48:09;;;;;;;5.65;5.38;;;;;;;;;;5003204;28;20117;-63
2023/12/21 03:50:35;;;;;;;5.20;5.00;;;;;;;;;;5024036;28;20459;-63
2023/12/21 03:53:00;;;;;;;5.28;4.97;;;;;;;;;;5017104;28;20524;-64
2023/12/21 03:55:26;;;;;;;5.47;5.13;;;;;;;;;;5018182;28;20041;-64
2023/12/21 03:57:52;;;;;;;5.40;5.20;;;;;;;;;;5007431;28;20064;-62
2023/12/21 04:00:20;;;;;;;5.75;5.45;;;;;;;;;;5016781;28;20119;-63
2023/12/21 04:02:46;;;;;;;5.45;5.25;;;;;;;;;;5017701;28;20045;-64
2023/12/21 04:05:12;;;;;;;5.50;5.13;;;;;;;;;;5014840;28;20954;-63
2023/12/21 04:07:38;;;;;;;5.18;4.97;;;;;;;;;;5016372;28;20706;-63
2023/12/21 04:10:04;;;;;;;5.10;4.90;;;;;;;;;;5016487;28;20542;-63
2023/12/21 04:12:29;;;;;;;4.90;4.70;;;;;;;;;;5017301;28;20038;-62
2023/12/21 04:14:56;;;;;;;5.43;5.22;;;;;;;;;;5017100;28;20037;-64
2023/12/21 04:17:21;;;;;;;5.28;5.07;;;;;;;;;;5014633;28;20375;-64
2023/12/21 04:19:47;;;;;;;5.47;5.28;;;;;;;;;;5018732;28;20033;-63
2023/12/21 04:22:12;;;;;;;5.35;5.07;;;;;;;;;;5015995;28;20038;-62
2023/12/21 04:24:38;;;;;;;5.35;5.13;;;;;;;;;;5016220;28;20559;-64
2023/12/21 04:27:04;;;;;;;5.15;4.95;;;;;;;;;;5016493;28;20609;-63
2023/12/21 04:29:29;;;;;;;5.20;5.00;;;;;;;;;;5018577;28;20041;-63
2023/12/21 04:31:55;;;;;;;5.35;5.15;;;;;;;;;;5016672;28;20028;-64
2023/12/21 04:34:21;;;;;;;5.47;5.28;;;;;;;;;;5013909;28;20148;-63
2023/12/21 04:36:46;;;;;;;5.20;5.00;;;;;;;;;;5020499;28;20603;-63
2023/12/21 04:39:12;;;;;;;5.45;5.25;;;;;;;;;;5015984;28;20033;-62
2023/12/21 04:41:38;;;;;;;5.40;5.10;;;;;;;;;;5016911;28;20186;-62
2023/12/21 04:44:05;;;;;;;5.32;5.13;;;;;;;;;;5016088;28;20120;-62
2023/12/21 04:46:31;;;;;;;5.40;5.20;;;;;;;;;;5020087;28;20525;-61
2023/12/21 04:48:57;;;;;;;5.20;5.00;;;;;;;;;;5014628;28;20443;-62
2023/12/21 04:51:22;;;;;;;5.43;5.22;;;;;;;;;;4999963;28;20029;-62
2023/12/21 04:53:48;;;;;;;5.43;5.13;;;;;;;;;;5003336;28;20030;-64
2023/12/21 04:56:14;;;;;;;5.00;4.80;;;;;;;;;;5019053;28;20053;-61
2023/12/21 04:58:40;;;;;;;5.60;5.30;;;;;;;;;;5020197;28;20061;-64
2023/12/21 05:01:07;;;;;;;5.18;4.97;;;;;;;;;;5013700;28;20101;-63
2023/12/21 05:03:32;;;;;;;5.30;5.10;;;;;;;;;;5017478;28;20124;-64
2023/12/21 05:05:58;;;;;;;5.32;5.13;;;;;;;;;;4998644;28;20195;-64
2023/12/21 05:08:24;;;;;;;5.63;5.32;;;;;;;;;;5017783;28;20476;-63
2023/12/21 05:10:49;;;;;;;5.13;4.93;;;;;;;;;;5016639;28;20041;-64
2023/12/21 05:13:18;;;;;;;5.32;5.13;;;;;;;;;;5013158;28;20033;-64
2023/12/21 05:15:44;;;;;;;5.40;5.13;;;;;;;;;;5017213;28;20537;-64
2023/12/21 05:18:09;;;;;;;5.60;5.30;;;;;;;;;;5018019;28;20034;-64
2023/12/21 05:20:35;;;;;;;5.80;5.35;;;;;;;;;;5018248;28;20029;-63
2023/12/21 05:23:00;;;;;;;5.53;5.22;;;;;;;;;;5019206;28;20095;-64
2023/12/21 05:25:26;;;;;;;5.40;5.10;;;;;;;;;;5017221;28;20029;-64
2023/12/21 05:27:52;;;;;;;5.45;5.15;;;;;;;;;;5017502;28;20042;-64
2023/12/21 05:30:18;;;;;;;5.80;5.50;;;;;;;;;;5017689;28;20022;-64
2023/12/21 05:32:45;;;;;;;5.70;5.40;;;;;;;;;;5021006;28;20037;-64
2023/12/21 05:35:11;;;;;;;6.40;5.90;;;;;;;;;;5016397;28;20029;-64
2023/12/21 05:37:37;;;;;;;5.85;5.45;;;;;;;;;;5020418;28;20030;-64
2023/12/21 05:40:03;;;;;;;5.20;5.00;;;;;;;;;;5019422;28;20045;-62
2023/12/21 05:42:29;;;;;;;5.53;5.22;;;;;;;;;;5018964;28;20045;-65
2023/12/21 05:44:54;;;;;;;5.80;5.50;;;;;;;;;;5029448;23;20061;-61
2023/12/21 05:47:20;;;;;;;5.95;5.65;;;;;;;;;;4996601;28;20042;-59
2023/12/21 05:49:45;;;;;;;6.07;5.78;;;;;;;;;;5000878;28;20685;-60
2023/12/21 05:52:12;;;;;;;5.78;5.47;;;;;;;;;;5000061;28;20033;-61
2023/12/21 05:54:38;;;;;;;5.80;5.50;;;;;;;;;;5000815;28;20791;-59
2023/12/21 05:57:04;;;;;;;6.07;5.63;;;;;;;;;;4995256;28;20045;-56
2023/12/21 05:59:30;;;;;;;5.57;5.28;;;;;;;;;;4997268;28;20034;-60
2023/12/21 06:01:55;;;;;;;6.07;5.78;;;;;;;;;;5000148;28;20517;-59
2023/12/21 06:04:21;;;;;;;6.40;6.10;;;;;;;;;;5000019;28;20053;-60
2023/12/21 06:06:46;;;;;;;6.25;5.95;;;;;;;;;;4997324;28;20479;-58
2023/12/21 06:09:13;;;;;;;6.03;5.72;;;;;;;;;;4998828;28;21766;-57
2023/12/21 06:11:39;;;;;;;5.80;5.50;;;;;;;;;;5001822;28;20487;-62
2023/12/21 06:14:05;;;;;;;5.97;5.68;;;;;;;;;;4999649;28;20029;-58
2023/12/21 06:16:31;;;;;;;6.05;5.75;;;;;;;;;;5000577;28;20041;-62
2023/12/21 06:18:56;;;;;;;6.00;5.70;;;;;;;;;;5000342;28;20068;-59
2023/12/21 06:21:23;;;;;;;6.03;5.72;;;;;;;;;;5001486;28;20065;-58
2023/12/21 06:23:49;;;;;;;6.63;6.32;;;;;;;;;;4999783;28;20073;-61
2023/12/21 06:26:14;;;;;;;6.55;6.15;;;;;;;;;;4999811;28;20072;-61
2023/12/21 06:28:41;;;;;;;6.25;5.90;;;;;;;;;;5000965;28;20121;-63
2023/12/21 06:31:06;;;;;;;6.00;5.70;;;;;;;;;;4999989;28;20038;-59
2023/12/21 06:33:32;;;;;;;5.97;5.68;;;;;;;;;;4999501;28;20044;-57
2023/12/21 06:35:57;;;;;;;5.97;5.68;;;;;;;;;;5000286;28;20041;-62
2023/12/21 06:38:23;;;;;;;5.80;5.50;;;;;;;;;;4999800;28;20041;-61
2023/12/21 06:40:50;;;;;;;5.75;5.45;;;;;;;;;;5001719;28;20041;-62
2023/12/21 06:43:16;;;;;;;6.13;5.72;;;;;;;;;;4999134;28;20092;-59
2023/12/21 06:45:42;;;;;;;6.20;5.90;;;;;;;;;;5001354;28;20045;-60
2023/12/21 06:48:08;;;;;;;6.40;5.90;;;;;;;;;;4999658;28;20554;-59
2023/12/21 06:50:33;;;;;;;6.30;6.00;;;;;;;;;;5002273;28;20044;-59
2023/12/21 06:52:59;;;;;;;7.25;6.63;;;;;;;;;;4998149;28;20643;-59
2023/12/21 06:55:25;;;;;;;6.45;6.15;;;;;;;;;;5001163;28;20474;-59
2023/12/21 06:57:50;;;;;;;6.32;6.03;;;;;;;;;;5001278;28;20041;-63
2023/12/21 07:00:17;;;;;;;6.05;5.75;;;;;;;;;;4998772;28;20049;-60
2023/12/21 07:02:42;;;;;;;5.88;5.57;;;;;;;;;;5001573;28;20120;-59
2023/12/21 07:05:08;;;;;;;5.68;5.38;;;;;;;;;;4999487;28;20144;-61
2023/12/21 07:07:34;;;;;;;6.57;6.18;;;;;;;;;;5001038;28;20098;-61
2023/12/21 07:09:59;;;;;;;6.25;5.95;;;;;;;;;;4999087;28;20041;-62
2023/12/21 07:12:27;;;;;;;6.05;5.75;;;;;;;;;;5001642;28;20152;-60
2023/12/21 07:14:52;;;;;;;5.22;5.03;;;;;;;;;;5001370;28;20068;-61
2023/12/21 07:17:19;;;;;;;5.55;5.20;;;;;;;;;;4999707;28;20080;-61
2023/12/21 07:19:44;;;;;;;6.00;5.70;;;;;;;;;;4999794;28;20037;-61
2023/12/21 07:22:10;;;;;;;5.82;5.53;;;;;;;;;;4999678;28;20038;-60
2023/12/21 07:24:35;;;;;;;5.95;5.65;;;;;;;;;;5001345;28;20056;-58
2023/12/21 07:27:01;;;;;;;6.35;6.03;;;;;;;;;;4997604;28;20561;-59
2023/12/21 07:29:27;;;;;;;6.00;5.70;;;;;;;;;;5001742;28;20045;-61
2023/12/21 07:31:52;;;;;;;6.00;5.70;;;;;;;;;;5001952;28;20030;-60
2023/12/21 07:34:18;;;;;;;5.90;5.50;;;;;;;;;;5000435;28;20093;-59
2023/12/21 07:36:43;;;;;;;6.20;5.80;;;;;;;;;;4999283;28;20525;-60
2023/12/21 07:39:09;;;;;;;6.13;5.82;;;;;;;;;;4999572;28;20590;-61
2023/12/21 07:41:34;;;;;;;6.10;5.80;;;;;;;;;;5001484;28;20075;-59
2023/12/21 07:44:01;;;;;;;6.15;5.75;;;;;;;;;;4998482;28;20050;-61
2023/12/21 07:46:26;;;;;;;5.90;5.60;;;;;;;;;;4999134;28;20423;-61
2023/12/21 07:48:52;;;;;;;6.05;5.75;;;;;;;;;;5000103;28;20037;-59
2023/12/21 07:51:18;;;;;;;6.00;5.70;;;;;;;;;;4999448;28;20038;-63
2023/12/21 07:53:43;;;;;;;6.35;6.05;;;;;;;;;;4998333;28;20056;-61
2023/12/21 07:56:09;;;;;;;6.10;5.80;;;;;;;;;;4998488;28;20387;-61
2023/12/21 07:58:35;;;;;;;5.80;5.50;;;;;;;;;;5000301;28;20059;-59
2023/12/21 08:01:01;;;;;;;6.18;5.88;;;;;;;;;;4997922;28;20197;-60
2023/12/21 08:03:27;;;;;;;6.25;5.85;;;;;;;;;;5000980;28;20070;-58
2023/12/21 08:05:52;;;;;;;6.00;5.70;;;;;;;;;;5001267;28;20091;-60
2023/12/21 08:08:19;;;;;;;6.82;6.43;;;;;;;;;;5000477;28;20533;-61
2023/12/21 08:10:44;;;;;;;6.70;6.10;;;;;;;;;;5000140;28;20041;-61
2023/12/21 08:13:11;;;;;;;6.18;5.88;;;;;;;;;;4999843;28;20044;-62
2023/12/21 08:15:37;;;;;;;5.82;5.53;;;;;;;;;;5002286;28;20049;-60
2023/12/21 08:18:03;;;;;;;6.50;6.10;;;;;;;;;;4997163;28;20048;-60
2023/12/21 08:20:29;;;;;;;5.70;5.40;;;;;;;;;;5002867;28;20037;-60
2023/12/21 08:22:55;;;;;;;5.97;5.68;;;;;;;;;;5002008;28;20042;-60
2023/12/21 08:25:23;;;;;;;6.20;5.90;;;;;;;;;;4998824;28;20415;-61
2023/12/21 08:27:48;;;;;;;6.00;5.70;;;;;;;;;;4998133;28;20048;-60
2023/12/21 08:30:14;;;;;;;6.28;5.85;;;;;;;;;;5000344;28;20037;-60
2023/12/21 08:32:39;;;;;;;5.85;5.55;;;;;;;;;;4999962;28;20473;-60
2023/12/21 08:35:06;;;;;;;6.43;6.13;;;;;;;;;;4997106;28;20034;-61
2023/12/21 08:37:32;;;;;;;6.20;5.90;;;;;;;;;;5002260;28;20411;-60
2023/12/21 08:39:58;;;;;;;6.32;5.93;;;;;;;;;;5001977;28;20711;-61
2023/12/21 08:42:26;;;;;;;6.15;5.85;;;;;;;;;;5001124;28;20154;-59
2023/12/21 08:44:52;;;;;;;6.22;5.82;;;;;;;;;;4995644;28;20046;-61
2023/12/21 08:47:18;;;;;;;6.00;5.60;;;;;;;;;;4999533;28;20053;-60
2023/12/21 08:49:44;;;;;;;6.03;5.72;;;;;;;;;;5001257;28;20125;-59
2023/12/21 08:52:12;;;;;;;6.50;6.00;;;;;;;;;;4983294;28;20033;-60
2023/12/21 08:54:37;;;;;;;5.93;5.63;;;;;;;;;;4999141;28;20033;-60
2023/12/21 08:57:03;;;;;;;6.35;6.05;;;;;;;;;;4999711;28;20191;-59
2023/12/21 08:59:29;;;;;;;5.88;5.57;;;;;;;;;;5001961;28;20045;-62
2023/12/21 09:01:55;;;;;;;5.75;5.45;;;;;;;;;;4999040;28;20835;-62
2023/12/21 09:04:21;;;;;;;6.28;5.88;;;;;;;;;;4999077;28;20049;-60
2023/12/21 09:06:47;;;;;;;6.05;5.75;;;;;;;;;;4997454;28;20049;-62
2023/12/21 09:09:13;;;;;;;6.07;5.78;;;;;;;;;;4996969;28;20099;-60
2023/12/21 09:11:41;;;;;;;6.45;5.95;;;;;;;;;;5008347;28;20041;-61
2023/12/21 09:14:07;;;;;;;7.43;6.93;;;;;;;;;;5006186;28;20084;-61
2023/12/21 09:16:33;;;;;;;6.15;5.85;;;;;;;;;;5008908;28;20045;-61
2023/12/21 09:18:59;;;;;;;6.18;5.88;;;;;;;;;;5005372;28;20088;-61
2023/12/21 09:21:24;;;;;;;6.72;6.32;;;;;;;;;;5003759;28;20031;-62
2023/12/21 09:23:50;;;;;;;6.85;6.47;;;;;;;;;;5009547;28;20140;-57
2023/12/21 09:26:16;;;;;;;6.38;6.07;;;;;;;;;;5004133;28;20029;-60
2023/12/21 09:28:42;;;;;;;6.18;5.88;;;;;;;;;;5007621;28;20033;-59
2023/12/21 09:31:07;;;;;;;6.45;6.15;;;;;;;;;;5001355;28;20514;-62
2023/12/21 09:33:34;;;;;;;6.65;6.28;;;;;;;;;;5002604;28;20045;-61
2023/12/21 09:36:03;;;;;;;6.60;6.20;;;;;;;;;;5000551;28;20092;-61
2023/12/21 09:38:28;;;;;;;;;;;;;;;;;;5004703;28;20053;-61
2023/12/21 09:40:57;;;;;;;7.28;6.60;;;;;;;;;;5002475;28;19914;-60
2023/12/21 09:43:22;;;;;;;6.15;5.80;;;;;;;;;;5001613;28;20060;-62
2023/12/21 09:45:51;;;;;;;5.80;5.50;;;;;;;;;;5001305;28;20025;-61
2023/12/21 09:48:18;;;;;;;6.05;5.75;;;;;;;;;;5002187;28;20141;-61
2023/12/21 09:50:45;;;;;;;6.20;5.90;;;;;;;;;;5000299;28;20044;-59
2023/12/21 09:53:12;;;;;;;6.30;5.90;;;;;;;;;;5001019;28;20044;-62
2023/12/21 09:55:43;;;;;;;6.38;6.00;;;;;;;;;;5001239;28;20094;-58
2023/12/21 09:58:12;;;;;;;5.78;5.47;;;;;;;;;;5000301;28;20030;-62
2023/12/21 10:00:38;;;;;;;5.80;5.50;;;;;;;;;;4999255;28;20034;-59
2023/12/21 10:03:05;;;;;;;6.05;5.75;;;;;;;;;;5001024;28;20053;-60
2023/12/21 10:05:32;;;;;;;5.85;5.55;;;;;;;;;;5002948;28;20088;-62
2023/12/21 10:07:58;;;;;;;6.30;6.00;;;;;;;;;;5000992;28;20574;-58
2023/12/21 10:10:24;;;;;;;5.45;5.22;;;;;;;;;;5000908;28;20037;-62
2023/12/21 10:12:50;;;;;;;6.25;5.95;;;;;;;;;;5002403;28;20034;-61
2023/12/21 10:15:17;;;;;;;6.35;6.05;;;;;;;;;;5000697;28;20037;-61
2023/12/21 10:17:43;;;;;;;6.10;5.80;;;;;;;;;;4998913;28;20052;-58
2023/12/21 10:20:12;;;;;;;6.22;5.93;;;;;;;;;;5001530;28;20038;-61
2023/12/21 10:22:40;;;;;;;6.82;6.43;;;;;;;;;;5001193;28;20638;-61
2023/12/21 10:25:09;;;;;;;6.32;5.97;;;;;;;;;;5000451;28;20046;-61
2023/12/21 10:27:36;;;;;;;6.43;6.13;;;;;;;;;;5000554;28;20106;-58
2023/12/21 10:30:03;;;;;;;6.22;5.93;;;;;;;;;;5003772;28;20049;-62
2023/12/21 10:32:29;;;;;;;6.03;5.72;;;;;;;;;;5000114;28;20061;-59
2023/12/21 10:34:59;;;;;;;6.68;6.30;;;;;;;;;;5002051;28;20136;-59
2023/12/21 10:37:25;;;;;;;;;;;;;;;;;;5001716;28;20528;-61
2023/12/21 10:39:52;;;;;;;6.30;6.00;;;;;;;;;;5003266;28;20754;-61
2023/12/21 10:42:17;;;;;;;6.72;6.32;;;;;;;;;;4999835;28;20041;-61
2023/12/21 10:44:44;;;;;;;6.50;6.10;;;;;;;;;;5001596;28;20041;-60
2023/12/21 10:47:11;;;;;;;6.80;6.50;;;;;;;;;;5000629;28;20037;-60
2023/12/21 10:49:39;;;;;;;6.70;6.40;;;;;;;;;;4998203;28;20060;-61
2023/12/21 10:52:05;;;;;;;6.97;6.53;;;;;;;;;;4998667;28;20037;-62
2023/12/21 10:54:32;;;;;;;6.82;6.53;;;;;;;;;;5000486;28;20038;-62
2023/12/21 10:56:59;;;;;;;6.90;6.57;;;;;;;;;;5003029;28;20041;-61
2023/12/21 10:59:26;;;;;;;7.00;6.70;;;;;;;;;;4999413;28;20046;-60
2023/12/21 11:01:53;;;;;;;6.95;6.65;;;;;;;;;;4999137;28;20132;-62
2023/12/21 11:04:22;;;;;;;7.03;6.63;;;;;;;;;;4997451;28;20050;-61
2023/12/21 11:06:49;;;;;;;6.80;6.40;;;;;;;;;;5002437;28;20042;-62
2023/12/21 11:09:19;;;;;;;6.65;6.35;;;;;;;;;;4997046;28;20113;-61
2023/12/21 11:11:46;;;;;;;6.40;6.00;;;;;;;;;;5002536;28;20041;-61
2023/12/21 11:14:12;;;;;;;5.57;5.28;;;;;;;;;;4998915;28;20049;-61
2023/12/21 11:16:45;;;;;;;5.45;5.15;;;;;;;;;;4999748;28;20037;-61
2023/12/21 11:19:14;;;;;;;5.90;5.60;;;;;;;;;;4994935;28;20038;-61
2023/12/21 11:21:40;;;;;;;5.70;5.30;;;;;;;;;;4999571;28;20073;-59
2023/12/21 11:24:06;;;;;;;6.25;5.85;;;;;;;;;;5000125;28;20087;-61
2023/12/21 11:26:31;;;;;;;6.68;6.28;;;;;;;;;;4999625;28;20065;-60
2023/12/21 11:29:04;;;;;;;6.70;6.38;;;;;;;;;;5001867;28;20038;-61
2023/12/21 11:31:41;;;;;;;7.00;6.60;;;;;;;;;;5000045;28;20091;-61
2023/12/21 11:34:14;;;;;;;6.82;6.43;;;;;;;;;;4999190;28;20128;-62
2023/12/21 11:36:41;;;;;;;6.85;6.45;;;;;;;;;;4993595;28;20042;-61
2023/12/21 11:39:13;;;;;;;6.53;6.22;;;;;;;;;;5001341;28;20383;-62
2023/12/21 11:41:59;;;;;;;6.53;6.22;;;;;;;;;;4994778;28;20096;-61
2023/12/21 11:44:36;;;;;;;7.45;7.05;;;;;;;;;;5000589;28;20069;-59
2023/12/21 11:47:04;;;;;;;6.90;6.60;;;;;;;;;;5002652;28;20041;-60
2023/12/21 11:49:30;;;;;;;7.05;6.65;;;;;;;;;;5000165;28;20049;-60
2023/12/21 11:51:56;;;;;;;7.10;6.70;;;;;;;;;;4999383;28;20037;-61
2023/12/21 11:54:23;;;;;;;6.75;6.45;;;;;;;;;;4999894;28;20665;-58
2023/12/21 11:56:51;;;;;;;6.85;6.55;;;;;;;;;;5003840;28;20136;-62
2023/12/21 11:59:17;;;;;;;6.70;6.40;;;;;;;;;;4995553;28;20092;-61
2023/12/21 12:01:46;;;;;;;7.05;6.70;;;;;;;;;;5001869;28;20426;-62
2023/12/21 12:04:15;;;;;;;7.03;6.63;;;;;;;;;;4996056;28;20133;-62
2023/12/21 12:06:46;;;;;;;7.30;6.90;;;;;;;;;;5001802;28;20041;-61
2023/12/21 12:09:12;;;;;;;6.63;6.32;;;;;;;;;;4997011;28;20518;-60
2023/12/21 12:11:38;;;;;;;6.30;6.00;;;;;;;;;;5001832;28;20041;-61
2023/12/21 12:14:04;;;;;;;6.45;6.15;;;;;;;;;;5000365;28;20034;-61
2023/12/21 12:16:32;;;;;;;6.70;6.40;;;;;;;;;;4996505;28;21302;-62
2023/12/21 12:18:58;;;;;;;6.60;6.20;;;;;;;;;;4983633;28;20038;-62
2023/12/21 12:21:24;;;;;;;6.70;6.40;;;;;;;;;;5005122;28;20038;-59
2023/12/21 12:23:50;;;;;;;7.35;6.95;;;;;;;;;;5004385;28;20034;-61
2023/12/21 12:26:16;;;;;;;6.53;6.22;;;;;;;;;;4999764;28;20040;-58
2023/12/21 12:28:44;;;;;;;7.15;6.75;;;;;;;;;;5006934;28;20064;-61
2023/12/21 12:31:11;;;;;;;7.22;6.82;;;;;;;;;;5005083;28;20037;-61
2023/12/21 12:33:38;;;;;;;7.10;6.70;;;;;;;;;;5001377;28;20167;-62
2023/12/21 12:36:05;;;;;;;7.57;7.18;;;;;;;;;;5001473;28;20518;-60
2023/12/21 12:38:31;;;;;;;7.30;6.90;;;;;;;;;;4997409;28;20037;-60
2023/12/21 12:40:57;;;;;;;6.90;6.60;;;;;;;;;;5020086;22;20042;-60
2023/12/21 12:43:24;;;;;;;7.05;6.68;;;;;;;;;;5014704;28;20044;-62
2023/12/21 12:45:49;;;;;;;6.80;6.50;;;;;;;;;;5018635;28;20033;-62
2023/12/21 12:48:18;;;;;;;7.10;6.60;;;;;;;;;;5016528;28;20036;-62
2023/12/21 12:50:45;;;;;;;7.32;6.93;;;;;;;;;;5019139;28;20116;-62
2023/12/21 12:53:10;;;;;;;6.82;6.50;;;;;;;;;;5021030;28;20037;-62
2023/12/21 12:55:36;;;;;;;8.40;7.50;;;;;;;;;;5018626;28;20462;-62
2023/12/21 12:58:04;;;;;;;6.80;6.45;;;;;;;;;;5018774;28;20037;-64
2023/12/21 13:00:30;;;;;;;6.38;6.07;;;;;;;;;;5021853;28;20426;-62
2023/12/21 13:02:55;;;;;;;6.75;6.35;;;;;;;;;;5015871;28;20029;-61
2023/12/21 13:05:23;;;;;;;6.22;5.93;;;;;;;;;;5012827;28;20625;-62
2023/12/21 13:07:49;;;;;;;7.20;6.80;;;;;;;;;;5017466;28;20090;-62
2023/12/21 13:10:17;;;;;;;6.78;6.47;;;;;;;;;;5016645;28;20083;-62
2023/12/21 13:12:43;;;;;;;6.93;6.57;;;;;;;;;;5015486;28;20029;-62
2023/12/21 13:15:11;;;;;;;6.35;6.05;;;;;;;;;;5011088;28;20099;-62
2023/12/21 13:17:37;;;;;;;6.63;6.32;;;;;;;;;;5021723;28;20033;-63
2023/12/21 13:20:05;;;;;;;6.97;6.57;;;;;;;;;;5009951;28;20045;-62
2023/12/21 13:22:30;;;;;;;7.07;6.72;;;;;;;;;;5017910;28;20034;-61
2023/12/21 13:24:56;;;;;;;7.15;6.75;;;;;;;;;;5003419;28;20048;-62
2023/12/21 13:27:21;;;;;;;6.90;6.50;;;;;;;;;;5001501;28;20132;-61
2023/12/21 13:29:47;;;;;;;6.70;6.40;;;;;;;;;;5016405;28;20132;-62
2023/12/21 13:32:13;;;;;;;6.82;6.43;;;;;;;;;;5016113;28;20037;-61
2023/12/21 13:34:40;;;;;;;7.15;6.75;;;;;;;;;;5022173;28;20513;-62
2023/12/21 13:37:06;;;;;;;6.50;6.20;;;;;;;;;;5021943;28;20443;-62
2023/12/21 13:39:31;;;;;;;6.68;6.38;;;;;;;;;;5015211;28;20033;-61
2023/12/21 13:41:57;;;;;;;15.15;7.60;;;;;;;;;;5019479;28;21024;-63
2023/12/21 13:44:25;;;;;;;6.78;6.38;;;;;;;;;;5014366;28;20042;-62
2023/12/21 13:46:50;;;;;;;7.00;6.70;;;;;;;;;;5019457;28;20033;-62
2023/12/21 13:49:16;;;;;;;7.22;6.82;;;;;;;;;;5011996;28;20026;-62
2023/12/21 13:51:42;;;;;;;7.15;6.80;;;;;;;;;;5011104;28;20029;-62
2023/12/21 13:54:08;;;;;;;6.93;6.63;;;;;;;;;;5015651;28;20896;-62
2023/12/21 13:56:34;;;;;;;6.90;6.50;;;;;;;;;;5014708;28;20059;-62
2023/12/21 13:58:59;;;;;;;7.25;6.85;;;;;;;;;;5017324;28;20034;-63
2023/12/21 14:01:25;;;;;;;7.50;7.10;;;;;;;;;;5018243;28;20491;-62
2023/12/21 14:03:51;;;;;;;7.05;6.65;;;;;;;;;;5000587;28;20033;-62
2023/12/21 14:06:19;;;;;;;7.03;6.63;;;;;;;;;;5017328;28;20086;-63
2023/12/21 14:08:45;;;;;;;7.43;7.03;;;;;;;;;;5017380;28;20121;-60
2023/12/21 14:11:11;;;;;;;7.18;6.78;;;;;;;;;;5016727;28;20031;-62
2023/12/21 14:13:37;;;;;;;6.93;6.53;;;;;;;;;;5015690;28;20064;-62
2023/12/21 14:16:03;;;;;;;6.88;6.47;;;;;;;;;;5020647;28;20139;-63
2023/12/21 14:18:29;;;;;;;7.35;6.95;;;;;;;;;;5015150;28;20276;-63
2023/12/21 14:20:54;;;;;;;7.25;6.85;;;;;;;;;;5002973;28;20688;-62
2023/12/21 14:23:21;;;;;;;7.00;6.70;;;;;;;;;;5016189;28;20044;-62
2023/12/21 14:25:47;;;;;;;7.47;7.07;;;;;;;;;;5016954;28;20649;-62
2023/12/21 14:28:14;;;;;;;7.55;7.15;;;;;;;;;;5014829;28;20051;-63
2023/12/21 14:30:41;;;;;;;7.13;6.72;;;;;;;;;;5012505;28;20176;-62
2023/12/21 14:33:06;;;;;;;7.75;7.35;;;;;;;;;;5020313;28;20037;-62
2023/12/21 14:35:32;;;;;;;6.80;6.50;;;;;;;;;;4993716;28;20146;-62
2023/12/21 14:37:57;;;;;;;7.20;6.78;;;;;;;;;;5015133;28;20046;-62